Time;durP1;ratioP1;P1;durP2;ratioP2;P2;SDS_P1;SDS_P2;PMS_P1;PMS_P2;Temp;Humidity;BMP_temperature;BMP_pressure;BME280_temperature;BME280_humidity;BME280_pressure;Samples;Min_cycle;Max_cycle;Signal;HPM_P1;HPM_P2
2022/01/11 00:01:12;;;;;;;1995.93;427.50;;;1.10;99.90;;;;;;6246090;22;20444;-78
2022/01/11 00:03:46;;;;;;;1259.17;189.23;;;1.10;99.90;;;;;;6220235;23;20464;-78
2022/01/11 00:06:28;;;;;;;1503.80;228.13;;;1.10;99.90;;;;;;6259663;23;20407;-78
2022/01/11 00:09:07;;;;;;;1797.47;319.97;;;1.10;99.90;;;;;;6222868;23;20406;-78
2022/01/11 00:11:38;;;;;;;1312.87;171.10;;;1.00;99.90;;;;;;6249306;23;20489;-78
2022/01/11 00:14:07;;;;;;;1415.67;245.40;;;1.00;99.90;;;;;;6222093;23;20430;-79
2022/01/11 00:16:36;;;;;;;1612.73;247.03;;;1.00;99.90;;;;;;6222614;23;20457;-78
2022/01/11 00:19:06;;;;;;;1982.30;375.50;;;1.00;99.90;;;;;;6221877;23;20433;-78
2022/01/11 00:21:44;;;;;;;1971.00;309.97;;;1.00;99.90;;;;;;6247951;23;20920;-78
2022/01/11 00:24:29;;;;;;;1563.43;228.80;;;1.00;99.90;;;;;;6221200;23;20502;-78
2022/01/11 00:26:59;;;;;;;1778.47;246.67;;;0.90;99.90;;;;;;6221261;23;20893;-78
2022/01/11 00:29:31;;;;;;;1389.10;191.60;;;0.90;99.90;;;;;;6222283;23;20488;-79
2022/01/11 00:35:04;;;;;;;1563.07;280.70;;;1.00;99.90;;;;;;6219819;23;20471;-78
2022/01/11 00:37:32;;;;;;;1427.27;253.00;;;0.90;99.90;;;;;;6259229;23;20449;-78
2022/01/11 00:40:04;;;;;;;1242.37;218.33;;;0.90;99.90;;;;;;6222153;23;20471;-79
2022/01/11 00:42:33;;;;;;;1221.83;186.77;;;0.90;99.90;;;;;;6222653;23;20430;-78
2022/01/11 00:45:03;;;;;;;1654.67;291.30;;;0.90;99.90;;;;;;6259929;22;20417;-79
2022/01/11 01:04:01;;;;;;;1357.60;235.87;;;0.90;99.90;;;;;;5902593;24;20528;-79
2022/01/11 01:06:37;;;;;;;1312.20;238.67;;;0.90;99.90;;;;;;5941606;24;20410;-78
2022/01/11 01:09:19;;;;;;;1549.07;241.57;;;0.80;99.90;;;;;;6052351;23;20426;-78
2022/01/11 01:11:51;;;;;;;1516.00;246.87;;;0.90;99.90;;;;;;6079729;23;20408;-78
2022/01/11 01:14:21;;;;;;;1476.20;223.83;;;0.80;99.90;;;;;;6165276;23;20579;-78
2022/01/11 01:16:52;;;;;;;1542.00;206.57;;;0.80;99.90;;;;;;6163816;23;20415;-78
2022/01/11 01:19:27;;;;;;;1915.87;380.03;;;0.80;99.90;;;;;;6162173;23;20430;-78
2022/01/11 01:22:07;;;;;;;1817.77;275.27;;;0.80;99.90;;;;;;6161401;23;20482;-78
2022/01/11 01:24:37;;;;;;;1849.63;288.57;;;0.80;99.90;;;;;;6162591;23;20450;-78
2022/01/11 01:27:06;;;;;;;1390.93;254.63;;;0.80;99.90;;;;;;6162713;23;20585;-80
2022/01/11 01:29:34;;;;;;;1441.30;246.83;;;0.80;99.90;;;;;;6162953;23;20412;-78
2022/01/11 01:32:05;;;;;;;1441.07;196.83;;;0.80;99.90;;;;;;6162538;23;20432;-78
2022/01/11 01:34:39;;;;;;;1319.20;269.93;;;0.80;99.90;;;;;;6162834;23;20436;-78
2022/01/11 01:37:07;;;;;;;1426.10;220.50;;;0.70;99.90;;;;;;6163194;23;20507;-79
2022/01/11 01:39:48;;;;;;;1412.63;180.80;;;0.70;99.90;;;;;;6163080;23;20447;-78
2022/01/11 01:42:22;;;;;;;945.03;161.87;;;0.70;99.90;;;;;;6161580;23;20427;-78
2022/01/11 01:44:51;;;;;;;1462.37;217.17;;;0.70;99.90;;;;;;6162288;23;20505;-78
2022/01/11 01:47:22;;;;;;;1785.63;263.63;;;0.70;99.90;;;;;;6162987;23;20416;-78
2022/01/11 01:49:50;;;;;;;1526.77;244.80;;;0.70;99.90;;;;;;6162741;23;20416;-78
2022/01/11 01:52:19;;;;;;;1945.50;342.23;;;0.60;99.90;;;;;;6162291;23;20459;-78
2022/01/11 01:54:47;;;;;;;1944.70;415.17;;;0.60;99.90;;;;;;6197269;23;20447;-78
2022/01/11 01:57:20;;;;;;;1468.93;210.77;;;0.70;99.90;;;;;;6162626;23;20416;-79
2022/01/11 01:59:50;;;;;;;1999.90;459.10;;;0.60;99.90;;;;;;6162716;23;20439;-78
2022/01/11 02:02:27;;;;;;;1795.60;251.40;;;0.60;99.90;;;;;;6161615;23;20427;-78
2022/01/11 02:04:57;;;;;;;1540.83;221.30;;;0.60;99.90;;;;;;6161397;23;20446;-78
2022/01/11 02:07:26;;;;;;;1387.60;239.37;;;0.60;99.90;;;;;;6161423;23;20454;-78
2022/01/11 02:09:55;;;;;;;1660.37;308.23;;;0.60;99.90;;;;;;6207721;23;20744;-78
2022/01/11 02:12:24;;;;;;;1451.70;217.47;;;0.60;99.90;;;;;;6222383;23;20440;-78
2022/01/11 02:14:53;;;;;;;1090.43;203.07;;;0.60;99.90;;;;;;6222228;23;20437;-78
2022/01/11 02:17:29;;;;;;;1339.57;219.87;;;0.60;99.90;;;;;;6223193;23;20405;-78
2022/01/11 02:19:59;;;;;;;1095.43;198.37;;;0.60;99.90;;;;;;6222980;23;20912;-78
2022/01/11 02:22:31;;;;;;;1355.63;222.43;;;0.60;99.90;;;;;;6223280;23;20460;-78
2022/01/11 02:25:04;;;;;;;1371.07;211.00;;;0.50;99.90;;;;;;6250356;23;20468;-78
2022/01/11 02:27:34;;;;;;;968.90;188.13;;;0.50;99.90;;;;;;6223290;23;20413;-78
2022/01/11 02:30:04;;;;;;;1683.40;240.13;;;0.50;99.90;;;;;;6222206;23;20448;-78
2022/01/11 02:32:47;;;;;;;1266.87;226.93;;;0.50;99.90;;;;;;6221543;23;20410;-78
2022/01/11 02:35:16;;;;;;;1091.50;194.03;;;0.50;99.90;;;;;;6221722;23;20429;-78
2022/01/11 02:37:46;;;;;;;1980.43;328.30;;;0.50;99.90;;;;;;6221873;23;20893;-78
2022/01/11 02:40:18;;;;;;;1187.00;229.67;;;0.50;99.90;;;;;;6246856;23;20417;-78
2022/01/11 02:42:46;;;;;;;1928.67;379.10;;;0.50;99.90;;;;;;6258427;23;20448;-78
2022/01/11 02:45:15;;;;;;;1615.13;297.20;;;0.50;99.90;;;;;;6221707;23;20819;-78
2022/01/11 02:47:45;;;;;;;1511.27;252.97;;;0.40;99.90;;;;;;6246742;22;20476;-78
2022/01/11 02:50:16;;;;;;;1850.10;288.87;;;0.50;99.90;;;;;;6246540;23;20409;-78
2022/01/11 02:52:50;;;;;;;1143.27;196.63;;;0.40;99.90;;;;;;6221467;23;20434;-78
2022/01/11 02:55:19;;;;;;;1476.67;265.80;;;0.40;99.90;;;;;;6221058;23;21028;-78
2022/01/11 02:58:01;;;;;;;1540.87;205.23;;;0.40;99.90;;;;;;6246257;23;20471;-78
2022/01/11 03:00:31;;;;;;;1065.10;164.93;;;0.40;99.90;;;;;;6221569;23;20421;-78
2022/01/11 03:03:12;;;;;;;1207.90;233.03;;;0.40;99.90;;;;;;6246654;23;20444;-78
2022/01/11 03:05:47;;;;;;;1119.90;168.97;;;0.40;99.90;;;;;;6221195;23;20414;-78
2022/01/11 03:08:20;;;;;;;1767.53;285.97;;;0.40;99.90;;;;;;6246244;23;20443;-78
2022/01/11 03:10:50;;;;;;;1602.93;245.93;;;0.40;99.90;;;;;;6258035;23;20382;-78
2022/01/11 03:13:19;;;;;;;1064.67;165.30;;;0.40;99.90;;;;;;6221231;22;20505;-78
2022/01/11 03:15:52;;;;;;;1477.20;195.27;;;0.40;99.90;;;;;;6247310;23;20497;-78
2022/01/11 03:18:22;;;;;;;1401.50;244.60;;;0.40;99.90;;;;;;6220811;23;20447;-78
2022/01/11 03:20:52;;;;;;;1891.47;289.53;;;0.30;99.90;;;;;;6221058;23;20409;-78
2022/01/11 03:23:28;;;;;;;1498.13;223.87;;;0.30;99.90;;;;;;6221123;22;20434;-78
2022/01/11 03:25:57;;;;;;;1199.77;177.43;;;0.30;99.90;;;;;;6246719;23;20436;-78
2022/01/11 03:28:26;;;;;;;1600.77;308.37;;;0.30;99.90;;;;;;6221231;23;20441;-78
2022/01/11 03:30:55;;;;;;;1861.90;314.00;;;0.30;99.90;;;;;;6246992;22;20450;-78
2022/01/11 03:33:24;;;;;;;1448.03;260.17;;;0.30;99.90;;;;;;6221192;22;20417;-78
2022/01/11 03:35:53;;;;;;;1221.77;174.47;;;0.30;99.90;;;;;;6221335;23;20421;-78
2022/01/11 03:38:22;;;;;;;1519.03;247.57;;;0.20;99.90;;;;;;6246711;23;20471;-78
2022/01/11 03:41:00;;;;;;;1119.53;192.43;;;0.30;99.90;;;;;;6221762;23;20420;-78
2022/01/11 03:43:30;;;;;;;1585.80;299.17;;;0.30;99.90;;;;;;6258626;22;20778;-78
2022/01/11 03:46:04;;;;;;;1746.13;317.00;;;0.20;99.90;;;;;;6221367;23;20417;-78
2022/01/11 03:48:38;;;;;;;1420.00;239.23;;;0.20;99.90;;;;;;6248345;23;20398;-78
2022/01/11 03:51:06;;;;;;;1310.37;188.10;;;0.20;99.90;;;;;;6221185;23;20756;-78
2022/01/11 03:53:55;;;;;;;850.87;156.50;;;0.20;99.90;;;;;;6222213;23;20440;-78
2022/01/11 03:56:28;;;;;;;1527.47;234.57;;;0.20;99.90;;;;;;6221845;23;20409;-78
2022/01/11 03:59:21;;;;;;;1727.10;300.23;;;0.20;99.90;;;;;;6247889;23;20414;-78
2022/01/11 04:02:01;;;;;;;;;;;;;;;;;;;;;
2022/01/11 04:04:32;;;;;;;1318.10;184.00;;;0.20;99.90;;;;;;6222360;23;20760;-78
2022/01/11 04:07:01;;;;;;;1954.57;323.30;;;0.20;99.90;;;;;;6247507;22;20421;-79
2022/01/11 04:09:31;;;;;;;1286.60;219.67;;;0.20;99.90;;;;;;6221916;23;20414;-79
2022/01/11 04:12:05;;;;;;;1168.60;240.10;;;0.20;99.90;;;;;;6221676;23;20797;-78
2022/01/11 04:14:34;;;;;;;1343.83;154.93;;;0.20;99.90;;;;;;6246434;23;20429;-78
2022/01/11 04:17:02;;;;;;;1163.07;209.33;;;0.20;99.90;;;;;;6222338;23;20418;-78
2022/01/11 04:19:34;;;;;;;1645.57;241.07;;;0.20;99.90;;;;;;6222933;23;20935;-78
2022/01/11 04:22:02;;;;;;;1687.10;321.53;;;0.20;99.90;;;;;;6223323;23;20421;-78
2022/01/11 04:24:32;;;;;;;1555.90;268.73;;;0.20;99.90;;;;;;6222483;23;20449;-78
2022/01/11 04:27:01;;;;;;;1155.97;229.20;;;0.20;99.90;;;;;;6223031;23;20417;-78
2022/01/11 04:29:30;;;;;;;1013.80;240.43;;;0.20;99.90;;;;;;6223677;23;20421;-78
2022/01/11 04:31:59;;;;;;;1209.10;164.10;;;0.20;99.90;;;;;;6223539;23;20441;-78
2022/01/11 04:34:28;;;;;;;797.07;197.13;;;0.20;99.90;;;;;;6223683;23;20433;-79
2022/01/11 04:37:00;;;;;;;1399.43;254.60;;;0.20;99.90;;;;;;6224249;23;20931;-78
2022/01/11 04:39:32;;;;;;;947.73;202.47;;;0.10;99.90;;;;;;6223663;23;20410;-78
2022/01/11 04:42:06;;;;;;;1062.10;166.03;;;0.20;99.90;;;;;;6223474;23;20427;-78
2022/01/11 04:44:38;;;;;;;1967.03;328.17;;;0.20;99.90;;;;;;6223030;23;20528;-78
2022/01/11 04:47:07;;;;;;;1230.03;259.43;;;0.20;99.90;;;;;;6249019;23;20409;-78
2022/01/11 04:49:36;;;;;;;977.67;148.23;;;0.20;99.90;;;;;;6248670;23;20452;-78
2022/01/11 04:52:11;;;;;;;1572.47;213.87;;;0.20;99.90;;;;;;6248980;23;20885;-78
2022/01/11 04:54:40;;;;;;;1021.13;160.57;;;0.10;99.90;;;;;;6248233;22;20465;-78
2022/01/11 04:57:09;;;;;;;1326.47;228.97;;;0.20;99.90;;;;;;6223073;23;20417;-79
2022/01/11 04:59:44;;;;;;;1077.27;208.17;;;0.10;99.90;;;;;;6223902;23;20418;-78
2022/01/11 05:02:12;;;;;;;1345.07;218.67;;;0.10;99.90;;;;;;6224166;23;20488;-78
2022/01/11 05:04:44;;;;;;;877.80;168.23;;;0.10;99.90;;;;;;6223156;23;20536;-78
2022/01/11 05:07:12;;;;;;;767.73;130.07;;;0.10;99.90;;;;;;6222681;23;20417;-78
2022/01/11 05:09:40;;;;;;;1172.37;209.10;;;0.10;99.90;;;;;;6223211;23;20489;-78
2022/01/11 05:12:10;;;;;;;1334.63;196.77;;;0.10;99.90;;;;;;6248332;23;20416;-78
2022/01/11 05:14:38;;;;;;;1430.87;215.60;;;0.10;99.90;;;;;;6221710;23;20434;-78
2022/01/11 05:43:12;;;;;;;644.33;101.83;;;0.00;99.90;;;;;;6084165;23;20440;-78
2022/01/11 05:45:40;;;;;;;1296.93;222.43;;;0.00;99.90;;;;;;6130871;23;20412;-78
2022/01/11 05:48:11;;;;;;;1060.20;195.50;;;0.00;99.90;;;;;;6165450;23;20463;-77
2022/01/11 05:50:43;;;;;;;1679.13;384.97;;;0.00;99.90;;;;;;6158308;23;20418;-77
2022/01/11 05:53:13;;;;;;;1224.60;188.07;;;0.00;99.90;;;;;;6221235;23;20418;-78
2022/01/11 05:55:44;;;;;;;997.57;150.60;;;0.00;99.90;;;;;;6221233;23;20763;-78
2022/01/11 05:58:17;;;;;;;1333.97;204.23;;;0.00;99.90;;;;;;6221158;23;20422;-78
2022/01/11 06:00:45;;;;;;;956.47;185.90;;;0.00;99.90;;;;;;6220789;23;20472;-77
2022/01/11 06:03:16;;;;;;;1161.33;172.43;;;0.00;99.90;;;;;;6221957;22;20410;-77
2022/01/11 06:05:48;;;;;;;1616.17;371.73;;;0.00;99.90;;;;;;6246252;23;20417;-77
2022/01/11 06:08:20;;;;;;;1127.73;168.07;;;0.00;99.90;;;;;;6220761;23;20910;-77
2022/01/11 06:10:50;;;;;;;1013.37;154.03;;;0.00;99.90;;;;;;6220984;23;20414;-78
2022/01/11 06:13:23;;;;;;;922.80;143.20;;;-0.10;99.90;;;;;;6246122;22;20973;-77
2022/01/11 06:15:55;;;;;;;1227.23;168.90;;;-0.10;99.90;;;;;;6246416;23;20406;-78
2022/01/11 06:18:24;;;;;;;1185.67;190.10;;;-0.10;99.90;;;;;;6220895;23;20445;-77
2022/01/11 06:21:08;;;;;;;1049.40;153.47;;;-0.10;99.90;;;;;;6221286;23;20471;-78
2022/01/11 06:23:36;;;;;;;1387.93;200.00;;;-0.10;99.90;;;;;;6247968;22;20477;-78
2022/01/11 06:26:06;;;;;;;1495.27;222.97;;;-0.10;99.90;;;;;;6222318;23;20413;-78
2022/01/11 06:28:42;;;;;;;1119.03;150.27;;;-0.10;99.90;;;;;;6221619;23;20890;-78
2022/01/11 06:31:10;;;;;;;1448.80;246.67;;;-0.10;99.90;;;;;;6259531;23;20382;-78
2022/01/11 06:33:39;;;;;;;1829.00;266.03;;;-0.10;99.90;;;;;;6221825;23;20925;-78
2022/01/11 06:36:10;;;;;;;904.47;184.27;;;-0.10;99.90;;;;;;6221441;23;20441;-77
2022/01/11 06:38:39;;;;;;;1296.63;176.60;;;-0.20;99.90;;;;;;6221341;23;20501;-78
2022/01/11 06:41:09;;;;;;;1969.83;408.07;;;-0.20;99.90;;;;;;6222318;23;20412;-78
2022/01/11 06:43:42;;;;;;;1683.00;256.20;;;-0.10;99.90;;;;;;6220419;23;20441;-77
2022/01/11 06:46:13;;;;;;;1176.63;189.73;;;-0.20;99.90;;;;;;6246510;23;20420;-78
2022/01/11 06:48:42;;;;;;;1715.40;300.90;;;-0.20;99.90;;;;;;6220498;23;20424;-78
2022/01/11 06:51:12;;;;;;;1851.90;271.33;;;-0.20;99.90;;;;;;6221509;23;20910;-78
2022/01/11 06:53:48;;;;;;;1388.67;164.77;;;-0.20;99.90;;;;;;6221234;23;20851;-78
2022/01/11 06:56:17;;;;;;;1306.53;250.23;;;-0.20;99.90;;;;;;6220956;23;20421;-77
2022/01/11 06:58:50;;;;;;;1002.43;222.80;;;-0.20;99.90;;;;;;6220623;23;20419;-77
2022/01/11 07:01:21;;;;;;;969.63;161.73;;;-0.20;99.90;;;;;;6220800;23;20401;-77
2022/01/11 07:03:53;;;;;;;1600.93;320.70;;;-0.20;99.90;;;;;;6220691;23;20504;-78
2022/01/11 07:06:29;;;;;;;1840.27;276.67;;;-0.20;99.90;;;;;;6220938;23;20440;-78
2022/01/11 07:09:24;;;;;;;;;;;;;;;;;;;;;
2022/01/11 07:12:01;;;;;;;891.90;165.63;;;-0.20;99.90;;;;;;6221594;23;20417;-76
2022/01/11 07:14:37;;;;;;;1567.03;321.57;;;-0.10;99.90;;;;;;6219446;23;20515;-76
2022/01/11 07:17:05;;;;;;;1440.00;186.20;;;-0.20;99.90;;;;;;6219801;23;20489;-77
2022/01/11 07:19:34;;;;;;;1578.80;280.37;;;-0.20;99.90;;;;;;6219585;23;20479;-77
2022/01/11 07:22:10;;;;;;;1008.97;160.67;;;-0.20;99.90;;;;;;6219553;23;20964;-77
2022/01/11 07:24:40;;;;;;;1455.73;230.17;;;-0.20;99.90;;;;;;6229579;23;20504;-77
2022/01/11 07:27:09;;;;;;;1755.70;329.53;;;-0.20;99.90;;;;;;6219437;23;20940;-76
2022/01/11 07:29:38;;;;;;;1350.47;262.17;;;-0.10;99.90;;;;;;6244848;23;20457;-77
2022/01/11 07:32:08;;;;;;;1576.83;277.60;;;-0.10;99.90;;;;;;6219576;23;20413;-77
2022/01/11 07:34:36;;;;;;;1175.73;202.03;;;-0.10;99.90;;;;;;6219390;23;20483;-76
2022/01/11 07:37:10;;;;;;;1354.93;204.87;;;-0.10;99.90;;;;;;6219557;23;20920;-77
2022/01/11 07:39:41;;;;;;;1023.73;208.83;;;-0.10;99.90;;;;;;6244830;23;20448;-76
2022/01/11 07:42:10;;;;;;;1246.80;264.10;;;-0.10;99.90;;;;;;6219512;23;20410;-77
2022/01/11 07:45:01;;;;;;;761.90;137.43;;;-0.10;99.90;;;;;;6219466;23;20437;-77
2022/01/11 07:47:31;;;;;;;685.77;124.60;;;-0.10;99.90;;;;;;6219571;23;20479;-77
2022/01/11 07:50:06;;;;;;;1091.43;160.77;;;-0.10;99.90;;;;;;6219429;23;20423;-77
2022/01/11 07:52:34;;;;;;;1448.90;225.30;;;-0.10;99.90;;;;;;6219349;23;20437;-77
2022/01/11 07:55:04;;;;;;;1033.97;198.57;;;-0.10;99.90;;;;;;6221467;23;20465;-77
2022/01/11 07:57:33;;;;;;;1341.53;249.43;;;-0.10;99.90;;;;;;6222414;23;20464;-77
2022/01/11 08:00:10;;;;;;;1410.03;192.17;;;-0.10;99.90;;;;;;6221642;23;20417;-77
2022/01/11 08:02:48;;;;;;;1352.67;180.67;;;-0.10;99.90;;;;;;6221548;23;20433;-76
2022/01/11 08:05:36;;;;;;;1061.30;148.83;;;-0.10;99.90;;;;;;6258638;22;20444;-77
2022/01/11 08:08:07;;;;;;;1005.80;200.13;;;-0.10;99.90;;;;;;6246686;23;20410;-77
2022/01/11 08:10:35;;;;;;;1021.30;202.33;;;-0.10;99.90;;;;;;6221181;23;20801;-77
2022/01/11 08:13:06;;;;;;;1170.80;202.63;;;-0.10;99.90;;;;;;6221378;23;20429;-77
2022/01/11 08:15:37;;;;;;;1192.17;151.67;;;-0.10;99.90;;;;;;6246517;23;20464;-76
2022/01/11 08:18:08;;;;;;;639.83;178.33;;;-0.10;99.90;;;;;;6221587;23;20467;-76
2022/01/11 08:20:37;;;;;;;1290.43;224.83;;;-0.10;99.90;;;;;;6221049;23;20425;-76
2022/01/11 08:23:07;;;;;;;1031.63;172.70;;;-0.10;99.90;;;;;;6221518;23;20440;-77
2022/01/11 08:25:37;;;;;;;1120.43;163.50;;;-0.10;99.90;;;;;;6221180;23;20438;-76
2022/01/11 08:28:09;;;;;;;848.10;154.73;;;-0.10;99.90;;;;;;6221995;23;20404;-77
2022/01/11 08:30:42;;;;;;;1083.57;146.57;;;-0.10;99.90;;;;;;6246484;23;20480;-77
2022/01/11 08:33:14;;;;;;;1127.87;152.10;;;-0.10;99.90;;;;;;6221070;22;20421;-77
2022/01/11 08:35:44;;;;;;;1436.10;261.80;;;-0.10;99.90;;;;;;6221196;23;20507;-77
2022/01/11 08:38:15;;;;;;;1722.37;337.27;;;-0.10;99.90;;;;;;6221069;23;20466;-77
2022/01/11 08:40:48;;;;;;;1905.67;354.40;;;-0.10;99.90;;;;;;6221068;23;20398;-77
2022/01/11 08:43:17;;;;;;;1333.23;245.30;;;-0.10;99.90;;;;;;6220962;22;20432;-77
2022/01/11 08:45:47;;;;;;;1950.70;403.67;;;-0.10;99.90;;;;;;6246137;23;20441;-76
2022/01/11 08:48:20;;;;;;;1918.63;441.70;;;-0.10;99.90;;;;;;6246193;23;20410;-77
2022/01/11 08:50:57;;;;;;;1117.33;200.30;;;-0.10;99.90;;;;;;6221579;23;20417;-77
2022/01/11 08:53:29;;;;;;;1881.90;402.13;;;-0.10;99.90;;;;;;6221005;22;20410;-77
2022/01/11 08:56:02;;;;;;;1814.03;284.93;;;0.00;99.90;;;;;;6246888;23;20719;-77
2022/01/11 08:58:33;;;;;;;1141.20;214.63;;;0.00;99.90;;;;;;6247365;23;20402;-77
2022/01/11 09:01:05;;;;;;;1181.10;218.83;;;0.00;99.90;;;;;;6221912;23;20577;-77
2022/01/11 09:03:36;;;;;;;997.03;163.27;;;0.00;99.90;;;;;;6221130;22;20440;-77
2022/01/11 09:06:07;;;;;;;1403.83;204.93;;;0.00;99.90;;;;;;6245474;23;20465;-77
2022/01/11 09:11:19;;;;;;;1552.80;308.97;;;0.10;99.90;;;;;;6240750;22;20512;-77
2022/01/11 09:13:49;;;;;;;1176.33;202.77;;;0.10;99.90;;;;;;6246090;23;20437;-77
2022/01/11 09:16:21;;;;;;;1895.93;362.20;;;0.10;99.90;;;;;;6220802;23;20420;-77
2022/01/11 09:18:51;;;;;;;1427.63;242.07;;;0.10;99.90;;;;;;6220916;23;20908;-77
2022/01/11 09:21:22;;;;;;;1340.57;217.13;;;0.20;99.90;;;;;;6220875;23;20409;-77
2022/01/11 09:23:55;;;;;;;1535.13;231.87;;;0.20;99.90;;;;;;6246125;23;20460;-77
2022/01/11 09:26:37;;;;;;;1915.80;310.60;;;0.20;99.90;;;;;;6222120;23;20448;-77
2022/01/11 09:29:08;;;;;;;1956.53;365.87;;;0.20;99.90;;;;;;6220656;23;20413;-77
2022/01/11 09:31:39;;;;;;;1999.90;474.07;;;0.20;99.90;;;;;;6220791;23;20476;-77
2022/01/11 09:34:07;;;;;;;1979.50;451.10;;;0.20;99.90;;;;;;6220889;23;20940;-77
2022/01/11 09:36:35;;;;;;;1373.63;326.73;;;0.30;99.90;;;;;;6220776;23;20488;-78
2022/01/11 09:39:05;;;;;;;1454.50;396.87;;;0.30;99.90;;;;;;6220420;23;20441;-77
2022/01/11 09:41:36;;;;;;;1999.90;495.47;;;0.30;99.90;;;;;;6221155;23;20475;-77
2022/01/11 09:44:08;;;;;;;1505.20;325.53;;;0.30;99.90;;;;;;6246024;23;20487;-77
2022/01/11 09:46:37;;;;;;;1999.90;272.83;;;0.30;99.90;;;;;;6220391;23;20434;-77
2022/01/11 09:49:07;;;;;;;1700.87;310.77;;;0.30;99.90;;;;;;6220477;23;20445;-78
2022/01/11 09:51:39;;;;;;;1550.37;249.43;;;0.40;99.90;;;;;;6246176;23;20504;-77
2022/01/11 09:54:08;;;;;;;1982.23;358.10;;;0.40;99.90;;;;;;6257110;22;20797;-77
2022/01/11 09:56:40;;;;;;;1989.70;329.17;;;0.40;99.90;;;;;;6220444;23;20750;-78
2022/01/11 09:59:15;;;;;;;1999.90;783.17;;;0.50;99.90;;;;;;6220850;23;20406;-77
2022/01/11 10:02:21;;;;;;;1591.80;282.00;;;0.50;99.90;;;;;;6246744;23;20410;-77
2022/01/11 10:05:13;;;;;;;1323.30;216.37;;;0.50;99.90;;;;;;6220236;23;20438;-77
2022/01/11 10:07:52;;;;;;;1312.07;181.70;;;0.50;99.90;;;;;;6220374;23;20760;-78
2022/01/11 10:10:23;;;;;;;1859.10;405.53;;;0.50;99.90;;;;;;6220162;23;20440;-77
2022/01/11 10:12:59;;;;;;;1433.60;296.10;;;0.60;99.90;;;;;;6220515;23;20926;-77
2022/01/11 10:15:33;;;;;;;1373.17;315.90;;;0.60;99.90;;;;;;6220152;23;20465;-77
2022/01/11 10:18:34;;;;;;;1999.90;381.53;;;0.60;99.90;;;;;;6245951;23;20409;-78
2022/01/11 10:21:31;;;;;;;1274.13;279.33;;;0.70;99.90;;;;;;6220249;23;20429;-77
2022/01/11 10:24:00;;;;;;;1909.00;323.80;;;0.70;99.90;;;;;;6245067;23;20750;-77
2022/01/11 10:26:42;;;;;;;1475.63;310.87;;;0.70;99.90;;;;;;6220111;23;20488;-77
2022/01/11 10:29:29;;;;;;;1982.37;454.67;;;0.80;99.90;;;;;;6220017;23;20413;-77
2022/01/11 10:32:14;;;;;;;1987.27;456.17;;;0.80;99.90;;;;;;6245794;23;20752;-77
2022/01/11 10:34:47;;;;;;;1975.80;501.83;;;0.80;99.90;;;;;;6220021;23;20520;-78
2022/01/11 10:37:29;;;;;;;1515.57;284.87;;;0.80;99.90;;;;;;6221132;23;20405;-77
2022/01/11 10:40:15;;;;;;;1944.30;272.07;;;0.90;99.90;;;;;;6220428;23;20504;-78
2022/01/11 10:42:48;;;;;;;1999.90;450.60;;;0.90;99.90;;;;;;6245373;23;20419;-78
2022/01/11 10:45:21;;;;;;;1999.90;361.23;;;0.90;99.90;;;;;;6245460;23;20441;-77
2022/01/11 10:47:56;;;;;;;1270.57;337.03;;;0.90;99.90;;;;;;6219856;23;20769;-78
2022/01/11 10:50:28;;;;;;;1952.93;449.57;;;1.00;99.90;;;;;;6220195;23;20451;-77
2022/01/11 10:53:02;;;;;;;1999.90;339.30;;;1.00;99.90;;;;;;6219883;23;20795;-77
2022/01/11 10:55:35;;;;;;;1045.23;341.97;;;1.00;99.90;;;;;;6219800;23;21015;-77
2022/01/11 10:58:25;;;;;;;1990.23;485.37;;;1.00;99.90;;;;;;6219832;23;20409;-77
2022/01/11 11:00:54;;;;;;;1571.57;325.93;;;1.10;99.90;;;;;;6244976;23;20893;-77
2022/01/11 11:03:25;;;;;;;1999.90;999.90;;;1.10;99.90;;;;;;6219515;22;20425;-77
2022/01/11 11:06:01;;;;;;;1999.90;811.03;;;1.10;99.90;;;;;;6220417;23;20425;-77
2022/01/11 11:08:38;;;;;;;1571.53;430.83;;;1.20;99.90;;;;;;6220076;23;20438;-77
2022/01/11 11:11:28;;;;;;;1538.80;563.43;;;1.20;99.90;;;;;;6235610;23;20406;-77
2022/01/11 11:14:09;;;;;;;1063.33;245.67;;;1.20;99.90;;;;;;6256552;22;20441;-78
2022/01/11 11:16:44;;;;;;;1721.93;755.10;;;1.30;99.90;;;;;;6219622;23;20414;-77
2022/01/11 11:19:15;;;;;;;721.60;240.30;;;1.30;99.90;;;;;;6220135;23;20416;-77
2022/01/11 11:21:48;;;;;;;745.87;319.53;;;1.30;99.90;;;;;;6219569;23;20790;-77
2022/01/11 11:24:20;;;;;;;477.07;229.33;;;1.40;99.90;;;;;;6219414;23;20474;-77
2022/01/11 11:26:51;;;;;;;681.47;309.87;;;1.40;99.90;;;;;;6219575;23;20440;-76
2022/01/11 11:29:22;;;;;;;551.30;276.07;;;1.50;99.90;;;;;;6256119;23;20437;-77
2022/01/11 11:32:10;;;;;;;494.03;260.23;;;1.60;99.90;;;;;;6219648;23;20411;-77
2022/01/11 11:34:40;;;;;;;807.43;221.27;;;1.60;99.90;;;;;;6219369;23;20487;-76
2022/01/11 11:37:10;;;;;;;260.00;189.07;;;1.70;99.90;;;;;;6219541;23;20919;-78
2022/01/11 11:39:42;;;;;;;126.10;113.33;;;1.70;99.90;;;;;;6219595;23;20750;-77
2022/01/11 11:42:17;;;;;;;220.43;174.60;;;1.80;99.90;;;;;;6219422;23;20858;-78
2022/01/11 11:44:48;;;;;;;132.93;120.57;;;1.90;99.90;;;;;;6219357;23;20741;-76
2022/01/11 11:47:16;;;;;;;167.83;153.00;;;1.90;99.90;;;;;;6256700;23;20416;-77
2022/01/11 11:49:47;;;;;;;157.43;142.47;;;2.00;99.90;;;;;;6256557;23;20881;-77
2022/01/11 11:52:21;;;;;;;241.30;163.43;;;2.00;99.90;;;;;;6246829;23;20398;-76
2022/01/11 11:54:55;;;;;;;119.27;108.20;;;2.10;99.90;;;;;;6245160;23;21000;-77
2022/01/11 11:57:26;;;;;;;183.00;132.00;;;2.20;99.90;;;;;;6219303;23;20403;-77
2022/01/11 12:00:00;;;;;;;122.53;111.23;;;2.20;99.90;;;;;;6219434;23;20413;-77
2022/01/11 12:02:40;;;;;;;127.70;99.07;;;2.30;99.90;;;;;;6246249;23;20767;-76
2022/01/11 12:05:11;;;;;;;96.33;89.10;;;2.30;99.90;;;;;;6256760;22;20504;-76
2022/01/11 12:07:42;;;;;;;435.00;167.87;;;2.40;99.90;;;;;;6220075;23;20440;-76
2022/01/11 12:10:16;;;;;;;323.43;139.27;;;2.40;99.90;;;;;;6219383;23;20401;-76
2022/01/11 12:12:52;;;;;;;700.30;251.70;;;2.50;99.90;;;;;;6220931;23;20495;-77
2022/01/11 12:15:39;;;;;;;363.23;168.40;;;2.50;99.90;;;;;;6244724;23;20443;-76
2022/01/11 12:18:15;;;;;;;988.60;352.83;;;2.60;99.90;;;;;;6219431;23;20731;-77
2022/01/11 12:20:45;;;;;;;379.67;190.07;;;2.60;99.90;;;;;;6219207;23;20421;-77
2022/01/11 12:23:20;;;;;;;391.07;205.53;;;2.70;99.90;;;;;;6219415;23;20446;-77
2022/01/11 12:25:55;;;;;;;788.00;255.33;;;2.70;99.90;;;;;;6220368;23;20509;-77
2022/01/11 12:28:26;;;;;;;677.23;212.93;;;2.80;99.90;;;;;;6256288;23;20409;-77
2022/01/11 12:31:26;;;;;;;627.73;221.07;;;2.80;99.90;;;;;;6219525;23;20403;-77
2022/01/11 12:33:54;;;;;;;1876.13;401.90;;;2.90;99.90;;;;;;6219302;23;20448;-77
2022/01/11 12:36:52;;;;;;;1101.13;262.60;;;2.90;99.90;;;;;;6219350;23;20521;-76
2022/01/11 12:39:22;;;;;;;1649.93;416.97;;;3.00;99.90;;;;;;6219659;23;20414;-76
2022/01/11 12:41:51;;;;;;;1698.67;400.23;;;3.00;99.90;;;;;;6221146;23;20424;-77
2022/01/11 12:44:23;;;;;;;1999.90;534.93;;;3.10;99.90;;;;;;6221001;23;20533;-77
2022/01/11 12:47:02;;;;;;;1999.90;636.77;;;3.10;99.90;;;;;;6220988;23;20437;-77
2022/01/11 12:49:39;;;;;;;1999.90;550.30;;;3.20;99.90;;;;;;6246271;23;20748;-77
2022/01/11 12:52:10;;;;;;;1999.90;621.13;;;3.20;99.90;;;;;;6248099;23;20485;-77
2022/01/11 12:54:40;;;;;;;1999.90;652.67;;;3.30;99.90;;;;;;6257859;22;20424;-76
2022/01/11 12:57:13;;;;;;;1644.23;352.63;;;3.30;99.90;;;;;;6220963;23;20440;-77
2022/01/11 12:59:45;;;;;;;1999.90;568.53;;;3.30;99.90;;;;;;6220818;23;20506;-77
2022/01/11 13:02:18;;;;;;;1999.90;482.23;;;3.40;99.90;;;;;;6220996;23;20424;-77
2022/01/11 13:04:49;;;;;;;1999.90;640.33;;;3.40;99.90;;;;;;6220811;23;20439;-76
2022/01/11 13:07:21;;;;;;;1999.90;486.27;;;3.40;99.90;;;;;;6247698;23;20515;-77
2022/01/11 13:10:05;;;;;;;1999.90;517.53;;;3.40;99.90;;;;;;6221028;23;20542;-77
2022/01/11 13:12:54;;;;;;;1999.90;820.93;;;3.50;99.90;;;;;;6246082;23;20471;-77
2022/01/11 13:15:32;;;;;;;1999.90;633.50;;;3.50;99.90;;;;;;6221040;23;20435;-77
2022/01/11 13:18:08;;;;;;;1999.90;393.37;;;3.60;99.90;;;;;;6246042;23;20435;-77
2022/01/11 13:20:59;;;;;;;1999.90;468.20;;;3.60;99.90;;;;;;6220611;23;20971;-77
2022/01/11 13:23:31;;;;;;;1999.90;622.60;;;3.60;99.90;;;;;;6221208;22;20896;-77
2022/01/11 13:26:01;;;;;;;1999.90;406.57;;;3.60;99.90;;;;;;6221055;23;20435;-77
2022/01/11 13:28:37;;;;;;;1999.90;552.70;;;3.70;99.90;;;;;;6220343;23;20435;-77